createdAt,value
2018-09-06T00:01:17.646Z,19.07
2018-09-06T00:03:56.938Z,19.87
2018-09-06T00:06:28.189Z,18.50
2018-09-06T00:11:43.408Z,18.70
2018-09-06T00:14:14.529Z,17.73
2018-09-06T00:17:00.269Z,19.43
2018-09-06T00:19:41.212Z,17.63
2018-09-06T00:22:12.205Z,19.87
2018-09-06T00:24:43.236Z,19.20
2018-09-06T00:27:24.299Z,18.40
2018-09-06T00:29:55.686Z,18.07
2018-09-06T00:32:26.893Z,16.63
2018-09-06T00:35:06.034Z,16.53
2018-09-06T00:37:37.134Z,17.23
2018-09-06T00:40:19.208Z,13.97
2018-09-06T00:42:50.344Z,19.50
2018-09-06T00:48:06.615Z,17.97
2018-09-06T00:50:37.769Z,17.47
2018-09-06T00:53:24.279Z,18.67
2018-09-06T00:56:06.092Z,19.60
2018-09-06T00:58:37.224Z,17.67
2018-09-06T01:01:08.544Z,17.43
2018-09-06T01:03:48.929Z,16.60
2018-09-06T01:06:20.029Z,17.30
2018-09-06T01:08:51.029Z,16.37
2018-09-06T01:11:29.829Z,18.17
2018-09-06T01:14:00.828Z,17.90
2018-09-06T01:16:41.681Z,18.93
2018-09-06T01:19:14.305Z,18.57
2018-09-06T01:21:45.301Z,19.13
2018-09-06T01:24:26.984Z,16.47
2018-09-06T01:26:59.411Z,17.83
2018-09-06T01:29:41.742Z,15.00
2018-09-06T01:32:13.058Z,17.37
2018-09-06T01:34:44.370Z,16.07
2018-09-06T01:37:25.522Z,16.10
2018-09-06T01:39:57.550Z,16.87
2018-09-06T01:43:16.857Z,19.60
2018-09-06T01:45:49.036Z,15.10
2018-09-06T01:48:20.233Z,18.23
2018-09-06T01:50:59.807Z,18.70
2018-09-06T01:53:30.892Z,18.10
2018-09-06T01:56:01.877Z,17.70
2018-09-06T01:58:32.998Z,15.30
2018-09-06T02:01:12.506Z,19.53
2018-09-06T02:03:43.848Z,14.53
2018-09-06T02:06:15.021Z,17.63
2018-09-06T02:08:54.230Z,18.40
2018-09-06T02:11:25.479Z,23.13
2018-09-06T02:13:56.568Z,16.43
2018-09-06T02:16:35.054Z,18.47
2018-09-06T02:19:06.617Z,18.97
2018-09-06T02:21:38.675Z,20.27
2018-09-06T02:24:19.444Z,19.53
2018-09-06T02:26:50.511Z,23.63
2018-09-06T02:29:32.199Z,19.40
2018-09-06T02:32:03.555Z,18.13
2018-09-06T02:37:16.990Z,17.90
2018-09-06T02:39:49.101Z,16.37
2018-09-06T02:42:27.458Z,22.70
2018-09-06T02:44:59.003Z,17.03
2018-09-06T02:47:30.215Z,15.80
2018-09-06T02:50:08.067Z,18.30
2018-09-06T02:52:38.958Z,16.23
2018-09-06T02:55:10.193Z,19.27
2018-09-06T02:57:43.507Z,18.57
2018-09-06T03:00:17.558Z,16.20
2018-09-06T03:02:48.592Z,17.37
2018-09-06T03:05:19.853Z,17.03
2018-09-06T03:07:50.901Z,19.00
2018-09-06T03:10:22.676Z,19.57
2018-09-06T03:12:54.076Z,18.37
2018-09-06T03:15:25.131Z,18.93
2018-09-06T03:17:56.218Z,18.63
2018-09-06T03:20:27.242Z,18.63
2018-09-06T03:22:58.211Z,16.60
2018-09-06T03:25:29.277Z,18.83
2018-09-06T03:28:00.239Z,20.20
2018-09-06T03:30:31.325Z,19.93
2018-09-06T03:33:02.320Z,16.90
2018-09-06T03:35:34.009Z,16.10
2018-09-06T03:38:05.087Z,18.93
2018-09-06T03:40:36.317Z,22.67
2018-09-06T03:43:07.681Z,18.00
2018-09-06T03:45:38.701Z,17.93
2018-09-06T03:48:09.724Z,16.47
2018-09-06T03:50:41.835Z,17.93
2018-09-06T03:53:12.949Z,19.63
2018-09-06T03:55:45.449Z,20.67
2018-09-06T03:58:16.699Z,17.70
2018-09-06T04:03:31.395Z,18.40
2018-09-06T04:06:02.362Z,17.87
2018-09-06T04:08:36.127Z,18.33
2018-09-06T04:11:08.408Z,17.53
2018-09-06T04:13:44.645Z,17.40
2018-09-06T04:16:21.430Z,17.20
2018-09-06T04:18:53.508Z,17.07
2018-09-06T04:21:25.459Z,21.00
2018-09-06T04:23:56.699Z,21.07
2018-09-06T04:26:27.857Z,20.93
2018-09-06T04:28:59.030Z,16.83
2018-09-06T04:31:30.499Z,22.03
2018-09-06T04:34:01.595Z,20.73
2018-09-06T04:36:32.824Z,20.63
2018-09-06T04:39:04.208Z,20.13
2018-09-06T04:41:35.261Z,21.77
2018-09-06T04:44:06.571Z,19.40
2018-09-06T04:46:37.625Z,19.83
2018-09-06T04:49:09.693Z,16.30
2018-09-06T04:51:40.703Z,17.80
2018-09-06T04:54:11.813Z,15.23
2018-09-06T04:56:43.157Z,16.13
2018-09-06T04:59:15.974Z,18.83
2018-09-06T05:01:48.695Z,17.73
2018-09-06T05:04:21.473Z,15.03
2018-09-06T05:28:12.103Z,16.00
2018-09-06T05:30:43.079Z,15.00
2018-09-06T05:33:14.087Z,17.83
2018-09-06T05:35:45.073Z,14.93
2018-09-06T05:38:16.247Z,15.67
2018-09-06T05:40:47.437Z,13.83
2018-09-06T05:43:18.901Z,11.73
2018-09-06T05:45:49.821Z,12.30
2018-09-06T05:48:20.687Z,15.47
2018-09-06T05:50:51.668Z,13.37
2018-09-06T05:53:22.760Z,17.90
2018-09-06T05:55:54.972Z,14.87
2018-09-06T05:58:26.081Z,16.03
2018-09-06T06:00:57.123Z,14.83
2018-09-06T06:03:29.527Z,16.37
2018-09-06T06:06:00.512Z,18.07
2018-09-06T06:08:42.200Z,15.10
2018-09-06T06:11:13.245Z,17.10
2018-09-06T06:13:44.869Z,18.70
2018-09-06T06:16:15.900Z,15.50
2018-09-06T06:18:47.696Z,15.27
2018-09-06T06:21:19.712Z,16.10
2018-09-06T06:23:52.759Z,13.80
2018-09-06T06:26:24.726Z,15.33
2018-09-06T06:28:57.454Z,14.27
2018-09-06T06:31:32.940Z,18.00
2018-09-06T06:34:04.324Z,18.83
2018-09-06T06:36:35.670Z,18.77
2018-09-06T06:39:11.934Z,15.63
2018-09-06T06:41:46.777Z,15.33
2018-09-06T06:44:19.304Z,12.63
2018-09-06T06:46:53.404Z,13.93
2018-09-06T06:49:26.256Z,16.80
2018-09-06T06:51:57.007Z,12.73
2018-09-06T06:54:27.731Z,13.20
2018-09-06T06:56:58.861Z,14.17
2018-09-06T06:59:29.873Z,13.03
2018-09-06T07:02:00.870Z,14.67
2018-09-06T07:04:33.008Z,13.17
2018-09-06T07:07:06.113Z,11.80
2018-09-06T07:09:38.028Z,14.27
2018-09-06T07:12:09.028Z,12.53
2018-09-06T07:14:41.457Z,13.43
2018-09-06T07:17:19.696Z,12.17
2018-09-06T07:19:51.848Z,12.37
2018-09-06T07:22:22.874Z,13.10
2018-09-06T07:24:55.999Z,11.87
2018-09-06T07:27:31.686Z,12.63
2018-09-06T07:30:05.065Z,12.67
2018-09-06T07:32:37.233Z,12.10
2018-09-06T07:35:14.673Z,13.50
2018-09-06T07:37:50.249Z,12.63
2018-09-06T07:40:28.015Z,11.70
2018-09-06T07:43:01.549Z,14.00
2018-09-06T07:45:35.856Z,11.07
2018-09-06T07:48:07.616Z,13.80
2018-09-06T07:50:48.606Z,11.63
2018-09-06T07:53:20.835Z,13.30
2018-09-06T07:55:53.145Z,11.07
2018-09-06T07:58:24.302Z,10.90
2018-09-06T08:01:09.318Z,11.23
2018-09-06T08:03:40.641Z,12.40
2018-09-06T08:06:11.775Z,10.27
2018-09-06T08:08:42.745Z,12.00
2018-09-06T08:11:13.754Z,11.63
2018-09-06T08:13:44.721Z,11.40
2018-09-06T08:16:17.124Z,11.37
2018-09-06T08:18:48.368Z,10.37
2018-09-06T08:21:19.871Z,11.47
2018-09-06T08:23:51.199Z,10.13
2018-09-06T08:26:22.441Z,10.73
2018-09-06T08:28:53.563Z,9.73
2018-09-06T08:31:24.718Z,10.00
2018-09-06T08:33:57.138Z,11.80
2018-09-06T08:36:28.192Z,10.67
2018-09-06T08:38:59.577Z,9.17
2018-09-06T08:41:30.759Z,8.73
2018-09-06T08:44:03.296Z,12.27
2018-09-06T08:46:35.344Z,10.40
2018-09-06T08:49:07.484Z,10.43
2018-09-06T08:51:48.391Z,10.33
2018-09-06T08:54:22.573Z,10.53
2018-09-06T08:56:55.177Z,8.83
2018-09-06T09:04:13.673Z,9.33
2018-09-06T09:48:18.504Z,10.27
2018-09-06T09:51:16.660Z,7.67
2018-09-06T10:44:50.499Z,7.77
2018-09-06T10:48:06.570Z,8.77
